sensor_id;sensor_type;location;lat;lon;timestamp;pressure;altitude;pressure_sealevel;temperature;humidity
36254;BME280;22291;52.250;21.228;2023-04-26T00:01:02;99447.65;;;7.10;93.43
36254;BME280;22291;52.250;21.228;2023-04-26T00:03:30;99440.67;;;7.09;93.26
36254;BME280;22291;52.250;21.228;2023-04-26T00:06:01;99441.79;;;7.08;93.35
36254;BME280;22291;52.250;21.228;2023-04-26T00:08:30;99445.08;;;7.05;93.28
36254;BME280;22291;52.250;21.228;2023-04-26T00:10:56;99452.11;;;7.04;93.11
36254;BME280;22291;52.250;21.228;2023-04-26T00:13:22;99453.50;;;7.01;93.29
36254;BME280;22291;52.250;21.228;2023-04-26T00:15:48;99451.92;;;7.00;93.56
36254;BME280;22291;52.250;21.228;2023-04-26T00:18:15;99456.82;;;6.98;93.46
36254;BME280;22291;52.250;21.228;2023-04-26T00:20:42;99457.91;;;6.97;93.47
36254;BME280;22291;52.250;21.228;2023-04-26T00:23:09;99452.83;;;6.96;93.66
36254;BME280;22291;52.250;21.228;2023-04-26T00:25:36;99453.70;;;6.94;93.68
36254;BME280;22291;52.250;21.228;2023-04-26T00:28:03;99458.81;;;6.92;93.77
36254;BME280;22291;52.250;21.228;2023-04-26T00:30:30;99460.46;;;6.91;93.89
36254;BME280;22291;52.250;21.228;2023-04-26T00:32:57;99455.08;;;6.91;94.10
36254;BME280;22291;52.250;21.228;2023-04-26T00:35:23;99461.63;;;6.87;93.96
36254;BME280;22291;52.250;21.228;2023-04-26T00:37:50;99466.52;;;6.85;94.08
36254;BME280;22291;52.250;21.228;2023-04-26T00:40:17;99466.59;;;6.83;94.15
36254;BME280;22291;52.250;21.228;2023-04-26T00:42:45;99467.97;;;6.80;94.27
36254;BME280;22291;52.250;21.228;2023-04-26T00:45:11;99469.44;;;6.75;94.24
36254;BME280;22291;52.250;21.228;2023-04-26T00:47:38;99482.39;;;6.73;94.24
36254;BME280;22291;52.250;21.228;2023-04-26T00:50:06;99493.70;;;6.72;94.43
36254;BME280;22291;52.250;21.228;2023-04-26T00:52:33;99495.56;;;6.72;94.58
36254;BME280;22291;52.250;21.228;2023-04-26T00:55:00;99491.05;;;6.70;94.38
36254;BME280;22291;52.250;21.228;2023-04-26T00:57:27;99502.66;;;6.68;94.16
36254;BME280;22291;52.250;21.228;2023-04-26T00:59:54;99504.86;;;6.66;94.02
36254;BME280;22291;52.250;21.228;2023-04-26T01:02:21;99512.36;;;6.66;94.21
36254;BME280;22291;52.250;21.228;2023-04-26T01:04:47;99514.30;;;6.63;94.10
36254;BME280;22291;52.250;21.228;2023-04-26T01:07:13;99513.02;;;6.61;93.91
36254;BME280;22291;52.250;21.228;2023-04-26T01:09:40;99519.78;;;6.58;93.79
36254;BME280;22291;52.250;21.228;2023-04-26T01:12:08;99522.84;;;6.54;93.69
36254;BME280;22291;52.250;21.228;2023-04-26T01:14:36;99528.55;;;6.50;93.39
36254;BME280;22291;52.250;21.228;2023-04-26T01:17:04;99527.11;;;6.41;92.64
36254;BME280;22291;52.250;21.228;2023-04-26T01:19:30;99529.45;;;6.31;92.28
36254;BME280;22291;52.250;21.228;2023-04-26T01:21:57;99526.63;;;6.25;92.25
36254;BME280;22291;52.250;21.228;2023-04-26T01:24:23;99517.85;;;6.20;92.15
36254;BME280;22291;52.250;21.228;2023-04-26T01:26:50;99523.88;;;6.14;92.10
36254;BME280;22291;52.250;21.228;2023-04-26T01:29:17;99521.55;;;6.10;92.18
36254;BME280;22291;52.250;21.228;2023-04-26T01:31:46;99518.34;;;6.08;92.30
36254;BME280;22291;52.250;21.228;2023-04-26T01:34:13;99513.89;;;6.03;92.34
36254;BME280;22291;52.250;21.228;2023-04-26T01:36:41;99524.95;;;5.99;92.25
36254;BME280;22291;52.250;21.228;2023-04-26T01:39:07;99529.05;;;5.96;92.25
36254;BME280;22291;52.250;21.228;2023-04-26T01:41:34;99531.73;;;5.96;92.20
36254;BME280;22291;52.250;21.228;2023-04-26T01:44:00;99532.28;;;5.93;92.27
36254;BME280;22291;52.250;21.228;2023-04-26T01:46:26;99532.28;;;5.93;92.55
36254;BME280;22291;52.250;21.228;2023-04-26T01:48:52;99537.66;;;5.93;92.55
36254;BME280;22291;52.250;21.228;2023-04-26T01:51:19;99542.23;;;5.93;92.66
36254;BME280;22291;52.250;21.228;2023-04-26T01:53:46;99544.95;;;5.90;92.38
36254;BME280;22291;52.250;21.228;2023-04-26T01:56:12;99543.11;;;5.88;92.40
36254;BME280;22291;52.250;21.228;2023-04-26T01:58:38;99554.41;;;5.88;92.36
36254;BME280;22291;52.250;21.228;2023-04-26T02:01:07;99550.41;;;5.85;92.26
36254;BME280;22291;52.250;21.228;2023-04-26T02:03:34;99556.89;;;5.84;92.53
36254;BME280;22291;52.250;21.228;2023-04-26T02:06:02;99551.75;;;5.85;92.62
36254;BME280;22291;52.250;21.228;2023-04-26T02:08:28;99548.31;;;5.82;92.76
36254;BME280;22291;52.250;21.228;2023-04-26T02:10:56;99552.10;;;5.81;92.73
36254;BME280;22291;52.250;21.228;2023-04-26T02:13:23;99551.05;;;5.79;92.63
36254;BME280;22291;52.250;21.228;2023-04-26T02:15:49;99551.90;;;5.77;92.65
36254;BME280;22291;52.250;21.228;2023-04-26T02:18:17;99555.11;;;5.77;92.60
36254;BME280;22291;52.250;21.228;2023-04-26T02:20:45;99551.70;;;5.74;92.37
36254;BME280;22291;52.250;21.228;2023-04-26T02:23:11;99559.77;;;5.71;92.37
36254;BME280;22291;52.250;21.228;2023-04-26T02:25:40;99556.59;;;5.69;92.36
36254;BME280;22291;52.250;21.228;2023-04-26T02:28:07;99554.23;;;5.65;92.24
36254;BME280;22291;52.250;21.228;2023-04-26T02:30:33;99565.28;;;5.64;92.32
36254;BME280;22291;52.250;21.228;2023-04-26T02:32:59;99562.33;;;5.63;92.45
36254;BME280;22291;52.250;21.228;2023-04-26T02:35:25;99561.55;;;5.62;92.62
36254;BME280;22291;52.250;21.228;2023-04-26T02:37:51;99554.28;;;5.63;92.63
36254;BME280;22291;52.250;21.228;2023-04-26T02:40:18;99552.16;;;5.62;92.58
36254;BME280;22291;52.250;21.228;2023-04-26T02:42:45;99548.16;;;5.59;92.28
36254;BME280;22291;52.250;21.228;2023-04-26T02:45:12;99556.50;;;5.58;92.21
36254;BME280;22291;52.250;21.228;2023-04-26T02:47:39;99558.98;;;5.54;91.98
36254;BME280;22291;52.250;21.228;2023-04-26T02:50:08;99562.23;;;5.51;91.90
36254;BME280;22291;52.250;21.228;2023-04-26T02:52:36;99555.88;;;5.47;92.03
36254;BME280;22291;52.250;21.228;2023-04-26T02:55:03;99555.32;;;5.48;92.41
36254;BME280;22291;52.250;21.228;2023-04-26T02:57:31;99550.52;;;5.47;92.72
36254;BME280;22291;52.250;21.228;2023-04-26T02:59:58;99550.80;;;5.46;92.96
36254;BME280;22291;52.250;21.228;2023-04-26T03:02:24;99555.61;;;5.46;93.04
36254;BME280;22291;52.250;21.228;2023-04-26T03:04:50;99554.53;;;5.47;93.19
36254;BME280;22291;52.250;21.228;2023-04-26T03:07:17;99553.75;;;5.47;93.30
36254;BME280;22291;52.250;21.228;2023-04-26T03:09:43;99551.85;;;5.47;93.50
36254;BME280;22291;52.250;21.228;2023-04-26T03:12:09;99556.66;;;5.48;93.78
36254;BME280;22291;52.250;21.228;2023-04-26T03:14:35;99554.53;;;5.47;93.85
36254;BME280;22291;52.250;21.228;2023-04-26T03:17:02;99552.61;;;5.50;94.17
36254;BME280;22291;52.250;21.228;2023-04-26T03:19:28;99552.06;;;5.51;94.44
36254;BME280;22291;52.250;21.228;2023-04-26T03:21:55;99561.16;;;5.52;94.54
36254;BME280;22291;52.250;21.228;2023-04-26T03:24:22;99558.19;;;5.54;94.59
36254;BME280;22291;52.250;21.228;2023-04-26T03:26:48;99564.31;;;5.57;94.84
36254;BME280;22291;52.250;21.228;2023-04-26T03:29:15;99557.84;;;5.58;94.79
36254;BME280;22291;52.250;21.228;2023-04-26T03:31:42;99565.89;;;5.58;94.85
36254;BME280;22291;52.250;21.228;2023-04-26T03:34:08;99568.57;;;5.58;94.74
36254;BME280;22291;52.250;21.228;2023-04-26T03:36:35;99572.30;;;5.59;95.03
36254;BME280;22291;52.250;21.228;2023-04-26T03:39:01;99570.12;;;5.61;95.15
36254;BME280;22291;52.250;21.228;2023-04-26T03:41:27;99571.17;;;5.63;95.24
36254;BME280;22291;52.250;21.228;2023-04-26T03:43:53;99578.84;;;5.70;95.67
36254;BME280;22291;52.250;21.228;2023-04-26T03:46:19;99578.84;;;5.70;95.67
36254;BME280;22291;52.250;21.228;2023-04-26T03:48:45;99566.54;;;5.69;95.58
36254;BME280;22291;52.250;21.228;2023-04-26T03:51:11;99563.85;;;5.69;95.63
36254;BME280;22291;52.250;21.228;2023-04-26T03:53:37;99575.09;;;5.71;95.48
36254;BME280;22291;52.250;21.228;2023-04-26T03:56:04;99579.11;;;5.71;95.36
36254;BME280;22291;52.250;21.228;2023-04-26T03:58:32;99573.74;;;5.71;95.54
36254;BME280;22291;52.250;21.228;2023-04-26T04:00:58;99570.77;;;5.72;95.62
36254;BME280;22291;52.250;21.228;2023-04-26T04:03:25;99573.45;;;5.72;95.64
36254;BME280;22291;52.250;21.228;2023-04-26T04:05:52;99573.39;;;5.75;95.90
36254;BME280;22291;52.250;21.228;2023-04-26T04:08:18;99569.86;;;5.77;96.00
36254;BME280;22291;52.250;21.228;2023-04-26T04:10:44;99568.50;;;5.79;96.08
36254;BME280;22291;52.250;21.228;2023-04-26T04:13:10;99571.12;;;5.82;96.09
36254;BME280;22291;52.250;21.228;2023-04-26T04:15:36;99568.14;;;5.84;96.02
36254;BME280;22291;52.250;21.228;2023-04-26T04:18:02;99571.38;;;5.83;95.82
36254;BME280;22291;52.250;21.228;2023-04-26T04:20:29;99572.98;;;5.84;95.78
36254;BME280;22291;52.250;21.228;2023-04-26T04:22:56;99574.33;;;5.84;95.65
36254;BME280;22291;52.250;21.228;2023-04-26T04:25:47;99572.46;;;5.82;95.48
36254;BME280;22291;52.250;21.228;2023-04-26T04:28:16;99580.52;;;5.82;95.30
36254;BME280;22291;52.250;21.228;2023-04-26T04:30:42;99581.42;;;5.77;95.09
36254;BME280;22291;52.250;21.228;2023-04-26T04:33:09;99585.77;;;5.73;95.03
36254;BME280;22291;52.250;21.228;2023-04-26T04:35:35;99589.00;;;5.73;95.06
36254;BME280;22291;52.250;21.228;2023-04-26T04:38:01;99573.16;;;5.74;95.41
36254;BME280;22291;52.250;21.228;2023-04-26T04:40:29;99584.13;;;5.75;95.68
36254;BME280;22291;52.250;21.228;2023-04-26T04:42:56;99585.97;;;5.77;95.65
36254;BME280;22291;52.250;21.228;2023-04-26T04:45:22;99583.26;;;5.79;95.91
36254;BME280;22291;52.250;21.228;2023-04-26T04:47:48;99595.27;;;5.82;95.96
36254;BME280;22291;52.250;21.228;2023-04-26T04:50:16;99587.20;;;5.85;96.10
36254;BME280;22291;52.250;21.228;2023-04-26T04:52:43;99597.44;;;5.83;95.11
36254;BME280;22291;52.250;21.228;2023-04-26T04:55:09;99597.23;;;5.79;94.72
36254;BME280;22291;52.250;21.228;2023-04-26T04:57:35;99595.56;;;5.80;95.13
36254;BME280;22291;52.250;21.228;2023-04-26T05:00:03;99601.55;;;5.77;94.54
36254;BME280;22291;52.250;21.228;2023-04-26T05:02:32;99605.57;;;5.77;94.74
36254;BME280;22291;52.250;21.228;2023-04-26T05:04:59;99610.38;;;5.78;94.60
36254;BME280;22291;52.250;21.228;2023-04-26T05:07:26;99604.52;;;5.76;94.23
36254;BME280;22291;52.250;21.228;2023-04-26T05:09:53;99612.89;;;5.72;93.28
36254;BME280;22291;52.250;21.228;2023-04-26T05:12:19;99608.70;;;5.66;92.94
36254;BME280;22291;52.250;21.228;2023-04-26T05:14:45;99615.42;;;5.66;93.49
36254;BME280;22291;52.250;21.228;2023-04-26T05:17:11;99618.09;;;5.66;92.46
36254;BME280;22291;52.250;21.228;2023-04-26T05:19:38;99614.08;;;5.66;93.25
36254;BME280;22291;52.250;21.228;2023-04-26T05:22:04;99617.25;;;5.68;93.34
36254;BME280;22291;52.250;21.228;2023-04-26T05:24:30;99618.78;;;5.74;94.02
36254;BME280;22291;52.250;21.228;2023-04-26T05:26:59;99624.30;;;5.80;93.97
36254;BME280;22291;52.250;21.228;2023-04-26T05:29:29;99622.88;;;5.85;93.79
36254;BME280;22291;52.250;21.228;2023-04-26T05:31:56;99629.27;;;5.89;93.22
36254;BME280;22291;52.250;21.228;2023-04-26T05:34:23;99628.92;;;5.93;92.87
36254;BME280;22291;52.250;21.228;2023-04-26T05:36:50;99631.61;;;5.96;92.77
36254;BME280;22291;52.250;21.228;2023-04-26T05:39:17;99636.80;;;6.06;92.61
36254;BME280;22291;52.250;21.228;2023-04-26T05:41:45;99640.59;;;6.19;93.16
36254;BME280;22291;52.250;21.228;2023-04-26T05:44:12;99634.81;;;6.28;92.33
36254;BME280;22291;52.250;21.228;2023-04-26T05:46:40;99640.00;;;6.39;92.04
36254;BME280;22291;52.250;21.228;2023-04-26T05:49:07;99644.37;;;6.48;92.09
36254;BME280;22291;52.250;21.228;2023-04-26T05:51:33;99642.83;;;6.59;91.56
36254;BME280;22291;52.250;21.228;2023-04-26T05:53:59;99642.44;;;6.65;91.44
36254;BME280;22291;52.250;21.228;2023-04-26T05:56:25;99647.28;;;6.80;92.33
36254;BME280;22291;52.250;21.228;2023-04-26T05:58:52;99649.11;;;6.96;92.25
36254;BME280;22291;52.250;21.228;2023-04-26T06:01:19;99653.78;;;7.04;91.19
36254;BME280;22291;52.250;21.228;2023-04-26T06:03:46;99659.21;;;7.15;91.31
36254;BME280;22291;52.250;21.228;2023-04-26T06:06:12;99665.76;;;7.23;89.62
36254;BME280;22291;52.250;21.228;2023-04-26T06:08:42;99662.62;;;7.32;90.13
36254;BME280;22291;52.250;21.228;2023-04-26T06:11:08;99662.70;;;7.41;89.52
36254;BME280;22291;52.250;21.228;2023-04-26T06:13:35;99668.75;;;7.46;89.02
36254;BME280;22291;52.250;21.228;2023-04-26T06:16:01;99669.56;;;7.58;88.99
36254;BME280;22291;52.250;21.228;2023-04-26T06:18:27;99668.89;;;7.64;87.63
36254;BME280;22291;52.250;21.228;2023-04-26T06:20:54;99671.95;;;7.60;86.97
36254;BME280;22291;52.250;21.228;2023-04-26T06:23:20;99671.81;;;7.54;86.51
36254;BME280;22291;52.250;21.228;2023-04-26T06:25:46;99676.11;;;7.55;85.44
36254;BME280;22291;52.250;21.228;2023-04-26T06:28:13;99675.17;;;7.59;85.58
36254;BME280;22291;52.250;21.228;2023-04-26T06:30:41;99674.48;;;7.79;86.83
36254;BME280;22291;52.250;21.228;2023-04-26T06:33:07;99671.73;;;7.93;86.49
36254;BME280;22291;52.250;21.228;2023-04-26T06:35:41;99668.30;;;8.01;86.52
36254;BME280;22291;52.250;21.228;2023-04-26T06:38:07;99666.95;;;8.01;85.70
36254;BME280;22291;52.250;21.228;2023-04-26T06:40:34;99662.92;;;8.12;85.33
36254;BME280;22291;52.250;21.228;2023-04-26T06:43:03;99667.79;;;8.33;86.20
36254;BME280;22291;52.250;21.228;2023-04-26T06:45:30;99671.42;;;8.59;84.38
36254;BME280;22291;52.250;21.228;2023-04-26T06:47:57;99668.14;;;8.91;84.02
36254;BME280;22291;52.250;21.228;2023-04-26T06:50:25;99674.16;;;9.17;82.95
36254;BME280;22291;52.250;21.228;2023-04-26T06:52:52;99668.00;;;9.51;82.92
36254;BME280;22291;52.250;21.228;2023-04-26T06:55:18;99668.02;;;9.78;81.61
36254;BME280;22291;52.250;21.228;2023-04-26T06:57:44;99662.58;;;10.04;81.00
36254;BME280;22291;52.250;21.228;2023-04-26T07:00:12;99659.52;;;10.32;81.29
36254;BME280;22291;52.250;21.228;2023-04-26T07:02:40;99651.91;;;10.72;80.42
36254;BME280;22291;52.250;21.228;2023-04-26T07:05:08;99665.77;;;10.86;77.83
36254;BME280;22291;52.250;21.228;2023-04-26T07:07:35;99674.58;;;10.74;76.63
36254;BME280;22291;52.250;21.228;2023-04-26T07:10:03;99675.90;;;10.59;74.97
36254;BME280;22291;52.250;21.228;2023-04-26T07:12:29;99669.98;;;10.51;73.63
36254;BME280;22291;52.250;21.228;2023-04-26T07:14:57;99681.37;;;10.65;74.21
36254;BME280;22291;52.250;21.228;2023-04-26T07:17:23;99674.19;;;10.69;72.19
36254;BME280;22291;52.250;21.228;2023-04-26T07:19:50;99685.01;;;10.69;71.62
36254;BME280;22291;52.250;21.228;2023-04-26T07:22:16;99679.36;;;10.92;71.63
36254;BME280;22291;52.250;21.228;2023-04-26T07:24:42;99680.20;;;10.98;68.94
36254;BME280;22291;52.250;21.228;2023-04-26T07:27:09;99682.52;;;11.24;70.00
36254;BME280;22291;52.250;21.228;2023-04-26T07:29:35;99681.56;;;11.70;69.41
36254;BME280;22291;52.250;21.228;2023-04-26T07:32:01;99691.24;;;12.07;69.34
36254;BME280;22291;52.250;21.228;2023-04-26T07:34:28;99693.23;;;12.31;68.25
36254;BME280;22291;52.250;21.228;2023-04-26T07:36:55;99687.40;;;12.54;66.53
36254;BME280;22291;52.250;21.228;2023-04-26T07:39:21;99684.50;;;12.84;64.56
36254;BME280;22291;52.250;21.228;2023-04-26T07:41:49;99688.00;;;13.21;65.39
36254;BME280;22291;52.250;21.228;2023-04-26T07:44:15;99693.41;;;13.46;63.40
36254;BME280;22291;52.250;21.228;2023-04-26T07:46:42;99698.91;;;13.74;62.29
36254;BME280;22291;52.250;21.228;2023-04-26T07:49:08;99690.45;;;14.20;62.34
36254;BME280;22291;52.250;21.228;2023-04-26T07:51:35;99691.81;;;14.58;59.68
36254;BME280;22291;52.250;21.228;2023-04-26T07:54:03;99695.66;;;14.79;59.88
36254;BME280;22291;52.250;21.228;2023-04-26T07:56:29;99697.77;;;15.02;59.45
36254;BME280;22291;52.250;21.228;2023-04-26T07:58:56;99696.37;;;15.18;56.45
36254;BME280;22291;52.250;21.228;2023-04-26T08:01:22;99703.34;;;14.99;55.59
36254;BME280;22291;52.250;21.228;2023-04-26T08:03:49;99698.75;;;15.03;56.03
36254;BME280;22291;52.250;21.228;2023-04-26T08:06:15;99693.56;;;15.40;55.64
36254;BME280;22291;52.250;21.228;2023-04-26T08:08:41;99699.20;;;15.31;54.09
36254;BME280;22291;52.250;21.228;2023-04-26T08:11:11;99707.69;;;15.45;54.40
36254;BME280;22291;52.250;21.228;2023-04-26T08:13:38;99703.30;;;15.76;54.14
36254;BME280;22291;52.250;21.228;2023-04-26T08:16:05;99708.12;;;15.93;53.21
36254;BME280;22291;52.250;21.228;2023-04-26T08:18:32;99713.06;;;15.42;49.87
36254;BME280;22291;52.250;21.228;2023-04-26T08:20:58;99709.75;;;15.07;49.74
36254;BME280;22291;52.250;21.228;2023-04-26T08:23:24;99713.89;;;14.85;49.33
36254;BME280;22291;52.250;21.228;2023-04-26T08:25:50;99708.92;;;14.81;50.25
36254;BME280;22291;52.250;21.228;2023-04-26T08:28:17;99708.59;;;15.24;51.88
36254;BME280;22291;52.250;21.228;2023-04-26T08:30:43;99705.40;;;15.93;50.76
36254;BME280;22291;52.250;21.228;2023-04-26T08:33:10;99711.90;;;16.17;49.79
36254;BME280;22291;52.250;21.228;2023-04-26T08:35:36;99721.19;;;16.13;49.20
36254;BME280;22291;52.250;21.228;2023-04-26T08:38:02;99702.56;;;15.60;47.50
36254;BME280;22291;52.250;21.228;2023-04-26T08:40:28;99714.94;;;15.12;47.00
36254;BME280;22291;52.250;21.228;2023-04-26T08:42:56;99719.72;;;14.61;46.80
36254;BME280;22291;52.250;21.228;2023-04-26T08:45:25;99719.19;;;13.99;46.09
36254;BME280;22291;52.250;21.228;2023-04-26T08:48:03;99718.30;;;13.60;47.34
36254;BME280;22291;52.250;21.228;2023-04-26T08:50:33;99728.03;;;13.24;47.78
36254;BME280;22291;52.250;21.228;2023-04-26T08:53:01;99720.57;;;12.84;48.47
36254;BME280;22291;52.250;21.228;2023-04-26T08:55:28;99737.59;;;12.54;48.81
36254;BME280;22291;52.250;21.228;2023-04-26T08:57:55;99736.92;;;12.24;49.00
36254;BME280;22291;52.250;21.228;2023-04-26T09:00:22;99735.80;;;11.98;49.78
36254;BME280;22291;52.250;21.228;2023-04-26T09:02:50;99737.60;;;11.78;49.67
36254;BME280;22291;52.250;21.228;2023-04-26T09:05:18;99731.75;;;11.47;49.34
36254;BME280;22291;52.250;21.228;2023-04-26T09:07:48;99727.56;;;11.28;50.54
36254;BME280;22291;52.250;21.228;2023-04-26T09:10:18;99737.09;;;11.19;50.92
36254;BME280;22291;52.250;21.228;2023-04-26T09:12:50;99732.36;;;11.08;51.47
36254;BME280;22291;52.250;21.228;2023-04-26T09:15:17;99734.33;;;10.98;51.55
36254;BME280;22291;52.250;21.228;2023-04-26T09:17:43;99745.83;;;10.87;51.64
36254;BME280;22291;52.250;21.228;2023-04-26T09:20:25;99746.01;;;10.81;52.05
36254;BME280;22291;52.250;21.228;2023-04-26T09:23:05;99737.86;;;10.90;51.58
36254;BME280;22291;52.250;21.228;2023-04-26T09:25:33;99730.00;;;11.36;51.93
36254;BME280;22291;52.250;21.228;2023-04-26T09:28:01;99743.80;;;11.43;51.45
36254;BME280;22291;52.250;21.228;2023-04-26T09:30:29;99739.88;;;11.32;50.50
36254;BME280;22291;52.250;21.228;2023-04-26T09:33:01;99754.02;;;11.08;50.23
36254;BME280;22291;52.250;21.228;2023-04-26T09:38:08;99744.17;;;10.56;50.41
36254;BME280;22291;52.250;21.228;2023-04-26T09:40:46;99748.19;;;10.32;50.51
36254;BME280;22291;52.250;21.228;2023-04-26T09:43:18;99755.41;;;10.17;50.97
36254;BME280;22291;52.250;21.228;2023-04-26T09:45:58;99749.83;;;10.04;51.71
36254;BME280;22291;52.250;21.228;2023-04-26T09:56:13;99758.50;;;9.86;51.69
36254;BME280;22291;52.250;21.228;2023-04-26T10:01:24;99769.25;;;9.60;51.82
36254;BME280;22291;52.250;21.228;2023-04-26T10:03:53;99766.22;;;9.44;51.47
36254;BME280;22291;52.250;21.228;2023-04-26T10:06:22;99755.29;;;9.29;51.37
36254;BME280;22291;52.250;21.228;2023-04-26T10:08:49;99754.95;;;9.22;51.61
36254;BME280;22291;52.250;21.228;2023-04-26T10:11:17;99756.42;;;9.28;51.80
36254;BME280;22291;52.250;21.228;2023-04-26T10:13:44;99761.58;;;9.36;51.03
36254;BME280;22291;52.250;21.228;2023-04-26T10:16:10;99759.47;;;9.44;51.86
36254;BME280;22291;52.250;21.228;2023-04-26T10:18:36;99759.11;;;9.57;51.45
36254;BME280;22291;52.250;21.228;2023-04-26T10:23:39;99759.07;;;9.86;51.90
36254;BME280;22291;52.250;21.228;2023-04-26T10:26:06;99757.94;;;9.96;51.29
36254;BME280;22291;52.250;21.228;2023-04-26T10:31:14;99760.89;;;9.97;50.52
36254;BME280;22291;52.250;21.228;2023-04-26T10:33:40;99766.05;;;9.96;49.66
36254;BME280;22291;52.250;21.228;2023-04-26T10:38:40;99772.63;;;9.75;50.53
36254;BME280;22291;52.250;21.228;2023-04-26T10:41:26;99772.88;;;9.76;50.65
36254;BME280;22291;52.250;21.228;2023-04-26T10:43:57;99775.02;;;9.76;50.41
36254;BME280;22291;52.250;21.228;2023-04-26T10:46:40;99781.30;;;9.74;50.44
36254;BME280;22291;52.250;21.228;2023-04-26T10:49:18;99786.28;;;9.69;50.31
36254;BME280;22291;52.250;21.228;2023-04-26T10:52:13;99778.24;;;9.67;49.91
36254;BME280;22291;52.250;21.228;2023-04-26T10:54:46;99784.38;;;9.70;50.25
36254;BME280;22291;52.250;21.228;2023-04-26T10:57:20;99783.84;;;9.79;50.26
36254;BME280;22291;52.250;21.228;2023-04-26T11:02:55;99786.16;;;10.53;50.86
36254;BME280;22291;52.250;21.228;2023-04-26T11:05:46;99787.16;;;10.72;49.09
36254;BME280;22291;52.250;21.228;2023-04-26T11:10:56;99785.77;;;10.57;46.66
36254;BME280;22291;52.250;21.228;2023-04-26T11:13:23;99789.36;;;10.38;47.00
36254;BME280;22291;52.250;21.228;2023-04-26T11:15:58;99787.37;;;10.23;46.98
36254;BME280;22291;52.250;21.228;2023-04-26T11:18:29;99787.84;;;10.17;46.60
36254;BME280;22291;52.250;21.228;2023-04-26T11:21:01;99795.80;;;10.13;47.50
36254;BME280;22291;52.250;21.228;2023-04-26T11:23:30;99792.67;;;10.26;47.84
36254;BME280;22291;52.250;21.228;2023-04-26T11:26:01;99787.59;;;10.42;48.10
36254;BME280;22291;52.250;21.228;2023-04-26T11:31:23;99789.77;;;10.83;47.48
36254;BME280;22291;52.250;21.228;2023-04-26T11:33:50;99795.28;;;10.96;46.46
36254;BME280;22291;52.250;21.228;2023-04-26T11:36:16;99802.37;;;10.94;45.97
36254;BME280;22291;52.250;21.228;2023-04-26T11:38:44;99799.95;;;11.01;46.03
36254;BME280;22291;52.250;21.228;2023-04-26T11:41:11;99807.89;;;11.30;46.37
36254;BME280;22291;52.250;21.228;2023-04-26T11:43:38;99812.16;;;11.40;44.84
36254;BME280;22291;52.250;21.228;2023-04-26T11:46:06;99813.83;;;11.38;44.78
36254;BME280;22291;52.250;21.228;2023-04-26T11:48:36;99798.20;;;11.29;44.86
36254;BME280;22291;52.250;21.228;2023-04-26T11:51:05;99806.97;;;11.26;45.22
36254;BME280;22291;52.250;21.228;2023-04-26T11:53:37;99815.44;;;11.16;45.44
36254;BME280;22291;52.250;21.228;2023-04-26T11:56:18;99820.00;;;11.09;45.75
36254;BME280;22291;52.250;21.228;2023-04-26T11:58:48;99813.41;;;11.04;45.88
36254;BME280;22291;52.250;21.228;2023-04-26T12:01:25;99810.96;;;11.20;46.68
36254;BME280;22291;52.250;21.228;2023-04-26T12:03:54;99802.16;;;11.91;47.57
36254;BME280;22291;52.250;21.228;2023-04-26T12:06:40;99814.00;;;12.29;45.79
36254;BME280;22291;52.250;21.228;2023-04-26T12:09:08;99808.56;;;12.23;43.09
36254;BME280;22291;52.250;21.228;2023-04-26T12:11:34;99813.90;;;12.10;43.29
36254;BME280;22291;52.250;21.228;2023-04-26T12:14:00;99811.23;;;11.95;42.33
36254;BME280;22291;52.250;21.228;2023-04-26T12:16:27;99820.89;;;11.75;43.23
36254;BME280;22291;52.250;21.228;2023-04-26T12:18:54;99824.03;;;11.56;42.99
36254;BME280;22291;52.250;21.228;2023-04-26T12:21:22;99823.03;;;11.31;43.09
36254;BME280;22291;52.250;21.228;2023-04-26T12:23:49;99827.83;;;11.02;43.17
36254;BME280;22291;52.250;21.228;2023-04-26T12:26:15;99831.78;;;10.72;43.08
36254;BME280;22291;52.250;21.228;2023-04-26T12:28:42;99832.05;;;10.47;43.71
36254;BME280;22291;52.250;21.228;2023-04-26T12:31:09;99842.94;;;10.27;44.17
36254;BME280;22291;52.250;21.228;2023-04-26T12:33:35;99847.05;;;10.07;44.44
36254;BME280;22291;52.250;21.228;2023-04-26T12:36:11;99838.92;;;9.89;44.71
36254;BME280;22291;52.250;21.228;2023-04-26T12:38:38;99840.00;;;9.80;45.05
36254;BME280;22291;52.250;21.228;2023-04-26T12:41:05;99843.25;;;9.70;45.34
36254;BME280;22291;52.250;21.228;2023-04-26T12:43:31;99840.86;;;9.69;45.68
36254;BME280;22291;52.250;21.228;2023-04-26T12:45:58;99838.38;;;9.70;45.96
36254;BME280;22291;52.250;21.228;2023-04-26T12:48:25;99848.96;;;9.69;45.68
36254;BME280;22291;52.250;21.228;2023-04-26T12:50:51;99850.63;;;9.67;46.45
36254;BME280;22291;52.250;21.228;2023-04-26T12:53:17;99842.27;;;9.66;46.33
36254;BME280;22291;52.250;21.228;2023-04-26T12:55:43;99860.84;;;9.59;46.45
36254;BME280;22291;52.250;21.228;2023-04-26T12:58:09;99862.80;;;9.56;46.76
36254;BME280;22291;52.250;21.228;2023-04-26T13:00:36;99862.38;;;9.51;46.89
36254;BME280;22291;52.250;21.228;2023-04-26T13:03:02;99861.13;;;9.49;46.69
36254;BME280;22291;52.250;21.228;2023-04-26T13:05:29;99860.95;;;9.45;46.02
36254;BME280;22291;52.250;21.228;2023-04-26T13:07:56;99867.27;;;9.41;45.86
36254;BME280;22291;52.250;21.228;2023-04-26T13:10:25;99867.10;;;9.37;46.30
36254;BME280;22291;52.250;21.228;2023-04-26T13:12:51;99870.11;;;9.35;45.69
36254;BME280;22291;52.250;21.228;2023-04-26T13:15:18;99870.53;;;9.40;46.37
36254;BME280;22291;52.250;21.228;2023-04-26T13:17:45;99873.19;;;9.51;46.59
36254;BME280;22291;52.250;21.228;2023-04-26T13:20:12;99869.11;;;9.63;46.03
36254;BME280;22291;52.250;21.228;2023-04-26T13:22:38;99868.20;;;9.76;46.57
36254;BME280;22291;52.250;21.228;2023-04-26T13:25:07;99868.86;;;9.90;46.19
36254;BME280;22291;52.250;21.228;2023-04-26T13:27:34;99868.40;;;9.97;45.54
36254;BME280;22291;52.250;21.228;2023-04-26T13:30:02;99867.30;;;9.98;45.29